createdAt,value
2023-05-02T00:00:24.517Z,68.66
2023-05-02T00:02:51.141Z,70.34
2023-05-02T00:05:17.597Z,70.14
2023-05-02T00:07:43.955Z,70.48
2023-05-02T00:10:10.709Z,69.61
2023-05-02T00:12:37.057Z,68.91
2023-05-02T00:15:03.472Z,66.60
2023-05-02T00:17:29.816Z,64.44
2023-05-02T00:19:56.568Z,63.21
2023-05-02T00:22:22.942Z,62.41
2023-05-02T00:24:49.245Z,62.08
2023-05-02T00:27:15.556Z,61.58
2023-05-02T00:29:41.964Z,61.06
2023-05-02T00:32:08.276Z,60.48
2023-05-02T00:34:34.621Z,60.05
2023-05-02T00:37:00.914Z,59.53
2023-05-02T00:39:27.268Z,59.48
2023-05-02T00:41:56.818Z,58.92
2023-05-02T00:44:23.166Z,59.17
2023-05-02T00:46:49.990Z,58.53
2023-05-02T00:49:16.340Z,57.98
2023-05-02T00:51:43.336Z,57.83
2023-05-02T00:54:09.653Z,58.31
2023-05-02T00:56:35.959Z,58.17
2023-05-02T00:59:03.159Z,57.97
2023-05-02T01:01:36.606Z,57.50
2023-05-02T01:04:12.039Z,57.08
2023-05-02T01:06:41.612Z,57.47
2023-05-02T01:09:10.853Z,57.33
2023-05-02T01:11:49.874Z,56.55
2023-05-02T01:14:17.076Z,56.75
2023-05-02T01:16:45.592Z,55.93
2023-05-02T01:19:32.668Z,55.46
2023-05-02T01:21:59.995Z,55.99
2023-05-02T01:24:29.614Z,55.70
2023-05-02T01:27:07.274Z,55.05
2023-05-02T01:29:34.535Z,55.24
2023-05-02T01:32:02.932Z,55.25
2023-05-02T01:34:29.979Z,54.57
2023-05-02T01:36:57.728Z,55.34
2023-05-02T01:39:24.824Z,55.10
2023-05-02T01:41:53.502Z,55.45
2023-05-02T01:44:21.692Z,55.77
2023-05-02T01:46:48.642Z,55.34
2023-05-02T01:49:15.623Z,55.98
2023-05-02T01:51:45.138Z,57.16
2023-05-02T01:54:12.744Z,56.71
2023-05-02T01:56:39.720Z,56.78
2023-05-02T01:59:10.473Z,57.14
2023-05-02T02:01:37.961Z,57.09
2023-05-02T02:04:06.386Z,56.95
2023-05-02T02:06:33.221Z,57.40
2023-05-02T02:08:59.937Z,57.87
2023-05-02T02:11:52.735Z,57.52
2023-05-02T02:14:21.365Z,57.43
2023-05-02T02:16:48.512Z,57.44
2023-05-02T02:19:15.469Z,58.04
2023-05-02T02:21:46.924Z,58.15
2023-05-02T02:24:13.891Z,59.75
2023-05-02T02:26:40.411Z,59.98
2023-05-02T02:29:06.700Z,60.64
2023-05-02T02:31:34.380Z,61.45
2023-05-02T02:34:01.473Z,61.87
2023-05-02T02:36:27.728Z,62.51
2023-05-02T02:39:00.762Z,63.46
2023-05-02T02:41:28.066Z,63.24
2023-05-02T02:44:05.835Z,65.06
2023-05-02T02:46:49.155Z,64.46
2023-05-02T02:49:27.057Z,64.51
2023-05-02T02:51:58.149Z,65.37
2023-05-02T02:54:31.838Z,64.84
2023-05-02T02:57:04.466Z,62.33
2023-05-02T02:59:35.354Z,62.76
2023-05-02T03:02:08.796Z,61.98
2023-05-02T03:04:43.558Z,61.82
2023-05-02T03:07:10.047Z,62.27
2023-05-02T03:09:46.044Z,61.92
2023-05-02T03:12:12.586Z,61.79
2023-05-02T03:14:39.437Z,61.81
2023-05-02T03:17:08.159Z,62.45
2023-05-02T03:19:34.807Z,61.32
2023-05-02T03:22:01.108Z,61.15
2023-05-02T03:24:30.169Z,61.51
2023-05-02T03:26:56.663Z,62.02
2023-05-02T03:29:23.298Z,61.49
2023-05-02T03:31:49.661Z,62.01
2023-05-02T03:34:16.229Z,61.51
2023-05-02T03:36:42.588Z,60.93
2023-05-02T03:39:09.146Z,61.07
2023-05-02T03:41:35.499Z,61.04
2023-05-02T03:44:01.796Z,60.13
2023-05-02T03:46:28.132Z,60.58
2023-05-02T03:48:54.436Z,60.67
2023-05-02T03:51:20.809Z,60.52
2023-05-02T03:53:47.133Z,60.56
2023-05-02T03:56:17.203Z,60.25
2023-05-02T03:58:43.561Z,61.15
2023-05-02T04:01:16.466Z,61.32
2023-05-02T04:03:43.050Z,61.46
2023-05-02T04:06:09.661Z,61.27
2023-05-02T04:08:36.923Z,61.68
2023-05-02T04:11:03.240Z,61.73
2023-05-02T04:13:29.604Z,62.20
2023-05-02T04:15:56.345Z,62.82
2023-05-02T04:18:22.640Z,62.90
2023-05-02T04:20:48.934Z,62.83
2023-05-02T04:23:15.238Z,62.02
2023-05-02T04:25:41.518Z,61.95
2023-05-02T04:28:07.810Z,61.60
2023-05-02T04:30:34.212Z,61.25
2023-05-02T04:33:00.630Z,61.01
2023-05-02T04:35:26.951Z,61.33
2023-05-02T04:37:53.268Z,61.22
2023-05-02T04:40:19.556Z,61.20
2023-05-02T04:42:46.170Z,61.47
2023-05-02T04:45:12.512Z,61.29
2023-05-02T04:47:39.892Z,61.19
2023-05-02T04:50:06.923Z,61.46
2023-05-02T04:52:33.214Z,61.22
2023-05-02T04:54:59.588Z,61.10
2023-05-02T04:57:25.989Z,60.81
2023-05-02T04:59:52.322Z,61.41
2023-05-02T05:02:18.737Z,61.58
2023-05-02T05:04:45.973Z,61.28
2023-05-02T05:07:12.476Z,61.43
2023-05-02T05:09:38.886Z,62.72
2023-05-02T05:12:05.271Z,62.17
2023-05-02T05:14:31.828Z,61.56
2023-05-02T05:16:58.475Z,61.76
2023-05-02T05:19:24.881Z,62.08
2023-05-02T05:21:51.227Z,62.34
2023-05-02T05:24:17.588Z,63.67
2023-05-02T05:26:43.925Z,63.45
2023-05-02T05:29:10.504Z,63.38
2023-05-02T05:31:37.086Z,63.99
2023-05-02T05:34:04.494Z,63.66
2023-05-02T05:36:31.433Z,62.93
2023-05-02T05:38:57.740Z,63.40
2023-05-02T05:41:24.646Z,63.58
2023-05-02T05:43:50.992Z,63.65
2023-05-02T05:46:17.287Z,64.69
2023-05-02T05:48:43.637Z,63.65
2023-05-02T05:51:09.957Z,63.61
2023-05-02T05:53:36.351Z,63.59
2023-05-02T05:56:12.817Z,63.79
2023-05-02T05:58:39.696Z,64.80
2023-05-02T06:01:06.226Z,65.23
2023-05-02T06:03:32.999Z,65.17
2023-05-02T06:05:59.874Z,64.96
2023-05-02T06:08:26.293Z,64.97
2023-05-02T06:10:52.643Z,64.97
2023-05-02T06:13:18.964Z,65.64
2023-05-02T06:15:45.777Z,66.39
2023-05-02T06:18:12.268Z,66.13
2023-05-02T06:20:38.655Z,65.37
2023-05-02T06:23:04.920Z,65.34
2023-05-02T06:25:32.893Z,65.28
2023-05-02T06:27:59.371Z,66.89
2023-05-02T06:30:26.943Z,65.57
2023-05-02T06:32:53.354Z,65.81
2023-05-02T06:35:19.737Z,65.59
2023-05-02T06:37:46.164Z,65.09
2023-05-02T06:40:13.479Z,64.61
2023-05-02T06:42:39.768Z,63.50
2023-05-02T06:45:06.334Z,63.85
2023-05-02T06:47:32.811Z,63.72
2023-05-02T06:49:59.319Z,64.42
2023-05-02T06:52:25.927Z,64.42
2023-05-02T06:54:52.212Z,64.42
2023-05-02T06:57:18.543Z,63.28
2023-05-02T06:59:44.891Z,64.18
2023-05-02T07:02:11.283Z,62.83
2023-05-02T07:04:37.704Z,64.36
2023-05-02T07:07:04.081Z,64.24
2023-05-02T07:09:30.453Z,63.96
2023-05-02T07:11:56.740Z,63.52
2023-05-02T07:14:23.031Z,63.48
2023-05-02T07:16:49.455Z,63.70
2023-05-02T07:19:15.835Z,63.17
2023-05-02T07:21:42.149Z,64.33
2023-05-02T07:24:08.524Z,64.66
2023-05-02T07:26:34.929Z,64.70
2023-05-02T07:29:01.317Z,64.00
2023-05-02T07:31:27.639Z,64.23
2023-05-02T07:33:53.981Z,65.46
2023-05-02T07:36:20.504Z,66.68
2023-05-02T07:38:46.843Z,66.29
2023-05-02T07:41:13.782Z,65.88
2023-05-02T07:43:40.096Z,65.81
2023-05-02T07:46:06.621Z,68.24
2023-05-02T07:48:33.035Z,70.46
2023-05-02T07:51:06.050Z,69.55
2023-05-02T07:53:32.386Z,69.44
2023-05-02T07:55:58.675Z,68.35
2023-05-02T07:58:25.050Z,68.81
2023-05-02T08:00:51.361Z,70.08
2023-05-02T08:03:17.732Z,71.51
2023-05-02T08:05:44.097Z,71.47
2023-05-02T08:08:10.441Z,69.66
2023-05-02T08:10:36.773Z,68.71
2023-05-02T08:13:03.104Z,68.53
2023-05-02T08:15:30.297Z,68.72
2023-05-02T08:17:56.609Z,68.92
2023-05-02T08:20:23.166Z,68.58
2023-05-02T08:22:50.411Z,67.94
2023-05-02T08:25:16.737Z,66.92
2023-05-02T08:27:43.018Z,67.36
2023-05-02T08:30:09.472Z,66.89
2023-05-02T08:32:37.068Z,67.00
2023-05-02T08:35:03.576Z,66.18
2023-05-02T08:37:29.962Z,65.94
2023-05-02T08:39:56.314Z,65.14
2023-05-02T08:42:22.952Z,65.50
2023-05-02T08:44:49.823Z,66.12
2023-05-02T08:47:16.347Z,65.36
2023-05-02T08:49:43.486Z,64.80
2023-05-02T08:52:12.069Z,64.49
2023-05-02T08:54:38.914Z,63.41
2023-05-02T08:57:05.604Z,62.73
2023-05-02T08:59:31.997Z,61.45
2023-05-02T09:02:06.167Z,61.80
2023-05-02T09:04:34.654Z,62.38
2023-05-02T09:07:01.485Z,62.19
2023-05-02T09:09:29.041Z,61.83
2023-05-02T09:11:55.485Z,60.29
2023-05-02T09:14:21.896Z,61.09
2023-05-02T09:16:48.244Z,60.98
2023-05-02T09:19:23.919Z,61.53
2023-05-02T09:21:50.302Z,60.78
2023-05-02T09:24:20.556Z,60.53
2023-05-02T09:27:16.136Z,60.63
2023-05-02T09:29:45.812Z,61.06
2023-05-02T09:32:12.147Z,60.75
2023-05-02T09:34:39.345Z,60.74
2023-05-02T09:37:06.283Z,60.70
2023-05-02T09:39:32.734Z,60.63
2023-05-02T09:44:26.944Z,61.08
2023-05-02T09:46:54.190Z,60.49
2023-05-02T09:49:38.807Z,59.77
2023-05-02T09:52:31.282Z,59.41
2023-05-02T09:54:57.881Z,58.86
2023-05-02T09:57:39.245Z,59.00
2023-05-02T10:00:05.971Z,59.92
2023-05-02T10:02:32.510Z,58.86
2023-05-02T10:05:00.459Z,57.81
2023-05-02T10:07:27.064Z,57.61
2023-05-02T10:09:54.466Z,56.61
2023-05-02T10:12:23.357Z,56.37
2023-05-02T10:14:53.340Z,56.38
2023-05-02T10:17:28.167Z,55.87
2023-05-02T10:19:59.966Z,56.22
2023-05-02T10:22:26.932Z,56.44
2023-05-02T10:24:53.795Z,55.93
2023-05-02T10:27:20.247Z,57.10
2023-05-02T10:29:46.965Z,56.72
2023-05-02T10:32:14.383Z,56.53
2023-05-02T10:34:41.457Z,56.92
2023-05-02T10:37:07.776Z,56.57
2023-05-02T10:39:34.149Z,56.12
2023-05-02T10:42:02.182Z,56.32
2023-05-02T10:44:35.279Z,56.64
2023-05-02T10:47:01.806Z,56.15
2023-05-02T10:49:29.741Z,55.98
2023-05-02T10:51:56.070Z,55.76
2023-05-02T10:54:23.644Z,55.45
2023-05-02T10:56:59.144Z,55.70
2023-05-02T10:59:41.515Z,56.34
2023-05-02T11:02:27.965Z,56.29
2023-05-02T11:05:07.155Z,55.84
2023-05-02T11:07:37.297Z,55.52
2023-05-02T11:10:18.615Z,55.44
2023-05-02T11:12:46.637Z,55.01
2023-05-02T11:15:13.519Z,54.88
2023-05-02T11:17:58.363Z,53.65
2023-05-02T11:20:24.894Z,54.07
2023-05-02T11:22:51.501Z,54.19
2023-05-02T11:25:37.037Z,54.28
2023-05-02T11:28:04.493Z,53.54
2023-05-02T11:30:37.953Z,53.48
2023-05-02T11:33:04.453Z,52.98
2023-05-02T11:35:34.487Z,53.29
2023-05-02T11:38:02.990Z,53.81
2023-05-02T11:40:29.666Z,53.70
2023-05-02T11:42:56.845Z,52.52
2023-05-02T11:45:32.349Z,53.96
2023-05-02T11:47:58.763Z,53.51
2023-05-02T11:50:25.972Z,54.48
2023-05-02T11:52:52.369Z,53.47
2023-05-02T11:55:18.718Z,53.45
2023-05-02T11:57:45.191Z,53.69
2023-05-02T12:00:11.916Z,53.60
2023-05-02T12:02:48.804Z,53.29
2023-05-02T12:05:15.675Z,53.71
2023-05-02T12:07:44.184Z,52.71
2023-05-02T12:10:11.149Z,53.70
2023-05-02T12:12:38.823Z,53.80
2023-05-02T12:15:14.302Z,53.11
2023-05-02T12:17:41.369Z,53.32
2023-05-02T12:20:08.913Z,53.61
2023-05-02T12:22:35.896Z,54.38
2023-05-02T12:25:04.254Z,53.46
2023-05-02T12:27:33.199Z,53.10
2023-05-02T12:29:59.766Z,53.71
2023-05-02T12:32:33.733Z,54.25
2023-05-02T12:35:03.046Z,53.22
2023-05-02T12:37:29.474Z,52.99
2023-05-02T12:39:56.775Z,52.58
2023-05-02T12:42:24.272Z,52.75
2023-05-02T12:44:54.065Z,53.79
2023-05-02T12:47:21.433Z,53.05
2023-05-02T12:49:55.126Z,53.33
2023-05-02T12:52:31.595Z,52.67
2023-05-02T12:55:14.962Z,52.50
2023-05-02T12:57:41.434Z,53.40
2023-05-02T13:00:08.389Z,52.12
2023-05-02T13:02:34.722Z,52.81
2023-05-02T13:05:01.000Z,52.36
2023-05-02T13:07:27.277Z,52.12
2023-05-02T13:09:53.628Z,51.77
2023-05-02T13:12:20.185Z,51.45
2023-05-02T13:14:46.528Z,50.99
2023-05-02T13:17:13.055Z,50.62
2023-05-02T13:19:42.457Z,50.30
2023-05-02T13:22:13.881Z,51.10
2023-05-02T13:24:40.197Z,51.69
2023-05-02T13:27:06.548Z,51.51
2023-05-02T13:29:32.851Z,51.12
2023-05-02T13:31:59.175Z,50.80
2023-05-02T13:34:25.685Z,50.03
2023-05-02T13:36:52.157Z,50.77
2023-05-02T13:39:18.921Z,50.43
2023-05-02T13:41:45.275Z,49.24
2023-05-02T13:44:11.598Z,49.58
2023-05-02T13:46:38.328Z,49.05
2023-05-02T13:49:04.947Z,49.20
2023-05-02T13:51:32.424Z,48.92
2023-05-02T13:53:59.271Z,48.75
2023-05-02T13:56:25.695Z,49.01
2023-05-02T13:58:52.100Z,48.80
2023-05-02T14:01:18.435Z,48.28
2023-05-02T14:03:44.966Z,48.47
2023-05-02T14:06:11.458Z,48.34
2023-05-02T14:08:37.979Z,49.07
2023-05-02T14:11:07.085Z,48.44
2023-05-02T14:13:33.761Z,48.65
2023-05-02T14:16:00.273Z,48.23
2023-05-02T14:18:26.668Z,47.75
2023-05-02T14:20:53.112Z,48.05
2023-05-02T14:23:19.413Z,47.70
2023-05-02T14:25:45.744Z,48.10
2023-05-02T14:28:12.030Z,47.05
2023-05-02T14:30:38.336Z,47.25
2023-05-02T14:33:04.744Z,47.47
2023-05-02T14:35:31.199Z,48.08
2023-05-02T14:37:57.550Z,47.38
2023-05-02T14:40:23.856Z,46.79
2023-05-02T14:42:50.229Z,46.32
2023-05-02T14:45:16.572Z,47.76
2023-05-02T14:47:42.904Z,47.40
2023-05-02T14:50:09.507Z,46.80
2023-05-02T14:52:35.855Z,47.95
2023-05-02T14:55:02.486Z,48.68
2023-05-02T14:57:28.890Z,47.53
2023-05-02T14:59:55.561Z,47.38
2023-05-02T15:02:22.430Z,47.91
2023-05-02T15:04:48.809Z,48.28
2023-05-02T15:07:15.493Z,47.20
2023-05-02T15:09:42.290Z,47.79
2023-05-02T15:12:08.666Z,47.16
2023-05-02T15:14:34.961Z,46.24
2023-05-02T15:17:01.367Z,46.23
2023-05-02T15:19:28.001Z,46.08
2023-05-02T15:21:57.169Z,45.86
2023-05-02T15:24:27.114Z,45.16
2023-05-02T15:26:53.581Z,45.45
2023-05-02T15:29:19.885Z,47.92
2023-05-02T15:31:46.210Z,46.10
2023-05-02T15:34:12.819Z,45.87
2023-05-02T15:36:39.403Z,46.26
2023-05-02T15:39:05.984Z,45.76
2023-05-02T15:41:32.405Z,45.66
2023-05-02T15:43:59.128Z,44.23
2023-05-02T15:46:25.758Z,44.23
2023-05-02T15:48:52.390Z,44.56
2023-05-02T15:51:18.807Z,44.01
2023-05-02T15:53:49.521Z,43.71
2023-05-02T15:56:16.473Z,44.04
2023-05-02T15:58:42.823Z,44.36
2023-05-02T16:01:09.158Z,45.06
2023-05-02T16:03:35.780Z,45.32
2023-05-02T16:06:05.275Z,44.45
2023-05-02T16:08:31.657Z,45.03
2023-05-02T16:11:00.700Z,44.08
2023-05-02T16:13:27.566Z,43.45
2023-05-02T16:15:54.065Z,43.58
2023-05-02T16:18:20.547Z,43.92
2023-05-02T16:20:47.786Z,43.74
2023-05-02T16:23:14.108Z,43.76
2023-05-02T16:25:40.567Z,45.14
2023-05-02T16:28:07.056Z,44.33
2023-05-02T16:30:36.305Z,44.38
2023-05-02T16:33:03.634Z,43.83
2023-05-02T16:35:30.030Z,44.28
2023-05-02T16:37:56.331Z,44.28
2023-05-02T16:40:22.696Z,44.03
2023-05-02T16:42:49.084Z,45.20
2023-05-02T16:45:16.016Z,45.39
2023-05-02T16:47:43.032Z,44.02
2023-05-02T16:50:09.538Z,44.33
2023-05-02T16:52:38.124Z,43.79
2023-05-02T16:55:04.822Z,44.80
2023-05-02T16:57:31.128Z,44.40
2023-05-02T16:59:57.969Z,44.30
2023-05-02T17:02:24.801Z,44.01
2023-05-02T17:04:51.203Z,45.21
2023-05-02T17:07:17.643Z,45.37
2023-05-02T17:09:44.609Z,44.20
2023-05-02T17:12:11.910Z,44.88
2023-05-02T17:14:39.462Z,45.41
2023-05-02T17:17:05.898Z,44.50
2023-05-02T17:19:32.494Z,43.91
2023-05-02T17:21:59.279Z,44.27
2023-05-02T17:24:25.838Z,44.72
2023-05-02T17:26:52.505Z,46.18
2023-05-02T17:29:18.916Z,45.81
2023-05-02T17:31:45.352Z,46.09
2023-05-02T17:34:11.744Z,45.00
2023-05-02T17:36:41.724Z,45.19
2023-05-02T17:39:08.489Z,45.04
2023-05-02T17:41:37.698Z,46.02
2023-05-02T17:44:04.982Z,46.60
2023-05-02T17:46:31.843Z,46.27
2023-05-02T17:48:58.345Z,46.75
2023-05-02T17:51:24.708Z,46.82
2023-05-02T17:53:51.672Z,47.02
2023-05-02T17:56:19.007Z,47.42
2023-05-02T17:58:45.683Z,46.79
2023-05-02T18:01:13.841Z,47.84
2023-05-02T18:03:40.595Z,47.44
2023-05-02T18:06:07.307Z,47.05
2023-05-02T18:08:33.837Z,46.45
2023-05-02T18:11:00.665Z,46.76
2023-05-02T18:13:27.202Z,46.74
2023-05-02T18:15:57.521Z,45.72
2023-05-02T18:18:23.966Z,45.53
2023-05-02T18:20:50.344Z,46.92
2023-05-02T18:23:17.060Z,46.37
2023-05-02T18:25:43.748Z,46.03
2023-05-02T18:28:10.372Z,45.95
2023-05-02T18:30:37.650Z,46.52
2023-05-02T18:33:04.218Z,46.56
2023-05-02T18:35:30.964Z,46.03
2023-05-02T18:37:57.743Z,46.08
2023-05-02T18:40:24.308Z,46.38
2023-05-02T18:42:51.649Z,45.46
2023-05-02T18:45:18.450Z,46.34
2023-05-02T18:47:44.949Z,46.30
2023-05-02T18:50:11.396Z,46.29
2023-05-02T18:52:37.729Z,46.20
2023-05-02T18:55:06.007Z,46.41
2023-05-02T18:57:33.766Z,46.86
2023-05-02T19:00:00.439Z,46.65
2023-05-02T19:02:27.172Z,46.59
2023-05-02T19:04:53.628Z,47.36
2023-05-02T19:07:20.040Z,47.47
2023-05-02T19:09:46.404Z,47.70
2023-05-02T19:12:12.766Z,48.04
2023-05-02T19:14:40.166Z,47.84
2023-05-02T19:17:06.865Z,48.31
2023-05-02T19:19:33.324Z,48.76
2023-05-02T19:21:59.825Z,49.40
2023-05-02T19:24:26.286Z,49.85
2023-05-02T19:26:53.191Z,49.39
2023-05-02T19:29:19.580Z,50.05
2023-05-02T19:31:46.319Z,49.44
2023-05-02T19:34:12.850Z,49.87
2023-05-02T19:36:39.220Z,49.42
2023-05-02T19:39:05.656Z,50.45
2023-05-02T19:41:32.006Z,50.44
2023-05-02T19:43:59.852Z,50.53
2023-05-02T19:46:26.505Z,50.63
2023-05-02T19:48:52.877Z,50.97
2023-05-02T19:51:25.122Z,51.17
2023-05-02T19:53:52.937Z,50.20
2023-05-02T19:56:19.998Z,50.90
2023-05-02T19:58:46.788Z,50.31
2023-05-02T20:01:13.338Z,50.53
2023-05-02T20:03:39.773Z,50.84
2023-05-02T20:06:06.238Z,51.28
2023-05-02T20:08:32.624Z,50.71
2023-05-02T20:10:58.997Z,50.44
2023-05-02T20:13:25.423Z,50.44
2023-05-02T20:15:52.251Z,50.18
2023-05-02T20:18:18.972Z,50.21
2023-05-02T20:20:45.829Z,49.78
2023-05-02T20:23:12.863Z,49.69
2023-05-02T20:25:40.576Z,49.30
2023-05-02T20:28:08.968Z,50.13
2023-05-02T20:30:35.728Z,49.38
2023-05-02T20:33:14.064Z,49.98
2023-05-02T20:35:42.252Z,49.78
2023-05-02T20:38:08.611Z,49.11
2023-05-02T20:40:37.705Z,49.52
2023-05-02T20:43:06.211Z,49.30
2023-05-02T20:45:32.568Z,48.98
2023-05-02T20:47:59.038Z,49.05
2023-05-02T20:50:25.835Z,48.63
2023-05-02T20:52:52.305Z,49.23
2023-05-02T20:55:18.695Z,49.31
2023-05-02T20:57:45.648Z,48.72
2023-05-02T21:00:13.639Z,49.11
2023-05-02T21:02:39.990Z,49.49
2023-05-02T21:05:06.429Z,50.27
2023-05-02T21:07:32.776Z,50.64
2023-05-02T21:09:59.201Z,49.25
2023-05-02T21:12:25.751Z,50.32
2023-05-02T21:14:52.080Z,49.20
2023-05-02T21:17:18.378Z,50.36
2023-05-02T21:19:44.773Z,49.95
2023-05-02T21:22:11.130Z,50.83
2023-05-02T21:24:37.427Z,49.96
2023-05-02T21:27:03.857Z,50.47
2023-05-02T21:29:30.235Z,49.46
2023-05-02T21:31:56.596Z,49.83
2023-05-02T21:34:22.907Z,51.43
2023-05-02T21:36:49.319Z,50.09
2023-05-02T21:39:16.275Z,50.68
2023-05-02T21:41:42.603Z,50.55
2023-05-02T21:44:10.734Z,50.57
2023-05-02T21:46:37.073Z,49.92
2023-05-02T21:49:03.959Z,50.53
2023-05-02T21:51:30.601Z,50.45
2023-05-02T21:53:56.904Z,51.20
2023-05-02T21:56:23.214Z,50.75
2023-05-02T21:58:51.147Z,50.70
2023-05-02T22:01:17.881Z,51.19
2023-05-02T22:03:44.254Z,51.18
2023-05-02T22:06:10.594Z,50.52
2023-05-02T22:08:37.097Z,50.96
2023-05-02T22:11:08.111Z,52.03
2023-05-02T22:13:34.811Z,51.79
2023-05-02T22:16:01.232Z,52.54
2023-05-02T22:18:27.700Z,51.56
2023-05-02T22:20:55.367Z,51.14
2023-05-02T22:23:21.697Z,51.43
2023-05-02T22:25:48.098Z,50.82
2023-05-02T22:28:14.434Z,50.69
2023-05-02T22:30:44.357Z,50.54
2023-05-02T22:33:10.972Z,50.27
2023-05-02T22:35:37.683Z,50.59
2023-05-02T22:38:04.990Z,49.99
2023-05-02T22:40:31.540Z,50.44
2023-05-02T22:42:58.356Z,50.56
2023-05-02T22:45:24.801Z,50.45
2023-05-02T22:47:52.142Z,50.48
2023-05-02T22:50:19.784Z,50.71
2023-05-02T22:52:46.427Z,49.95
2023-05-02T22:55:12.844Z,50.91
2023-05-02T22:57:39.321Z,49.82
2023-05-02T23:00:07.005Z,50.39
2023-05-02T23:02:33.565Z,51.08
2023-05-02T23:04:59.934Z,50.80
2023-05-02T23:07:26.223Z,50.78
2023-05-02T23:09:52.525Z,51.46
2023-05-02T23:12:18.808Z,51.39
2023-05-02T23:14:45.940Z,51.19
2023-05-02T23:17:12.307Z,51.33
2023-05-02T23:19:38.648Z,51.38
2023-05-02T23:22:04.940Z,51.19
2023-05-02T23:24:31.485Z,50.71
2023-05-02T23:26:57.860Z,50.67
2023-05-02T23:29:25.102Z,52.16
2023-05-02T23:31:53.603Z,51.26
2023-05-02T23:34:23.100Z,51.03
2023-05-02T23:36:51.176Z,52.07
2023-05-02T23:39:17.593Z,52.86
2023-05-02T23:41:43.928Z,51.75
2023-05-02T23:44:10.478Z,51.57
2023-05-02T23:46:36.825Z,52.37
2023-05-02T23:49:03.133Z,53.17
2023-05-02T23:51:31.683Z,51.95
2023-05-02T23:53:58.069Z,52.29
2023-05-02T23:56:24.476Z,52.28
2023-05-02T23:58:50.800Z,53.07
